createdAt,value
2023-04-20T00:01:57.701Z,96854.06
2023-04-20T00:06:59.822Z,96846.63
2023-04-20T00:12:03.148Z,96849.59
2023-04-20T00:17:05.531Z,96835.66
2023-04-20T00:22:07.508Z,96824.38
2023-04-20T00:27:11.769Z,96835.31
2023-04-20T00:32:13.702Z,96824.78
2023-04-20T00:37:15.701Z,96816.50
2023-04-20T00:42:18.978Z,96817.38
2023-04-20T00:47:20.929Z,96830.84
2023-04-20T00:52:23.025Z,96827.56
2023-04-20T00:57:27.917Z,96826.13
2023-04-20T01:02:29.967Z,96827.75
2023-04-20T01:07:32.571Z,96821.56
2023-04-20T01:12:36.155Z,96820.31
2023-04-20T01:17:40.741Z,96820.09
2023-04-20T01:22:45.607Z,96818.34
2023-04-20T01:27:48.132Z,96816.38
2023-04-20T01:32:50.353Z,96814.53
2023-04-20T01:37:53.665Z,96807.47
2023-04-20T01:42:55.863Z,96786.53
2023-04-20T01:47:57.848Z,96799.03
2023-04-20T01:53:01.385Z,96806.94
2023-04-20T01:58:04.010Z,96808.56
2023-04-20T02:03:06.516Z,96799.66
2023-04-20T02:08:09.947Z,96803.41
2023-04-20T02:13:11.996Z,96800.75
2023-04-20T02:18:16.266Z,96802.09
2023-04-20T02:23:19.554Z,96799.44
2023-04-20T02:28:21.530Z,96800.53
2023-04-20T02:33:23.485Z,96798.94
2023-04-20T02:38:27.164Z,96811.41
2023-04-20T02:43:29.077Z,96807.34
2023-04-20T02:48:31.072Z,96808.09
2023-04-20T02:53:34.665Z,96814.03
2023-04-20T02:58:36.611Z,96810.06
2023-04-20T03:03:38.667Z,96810.81
2023-04-20T03:08:42.122Z,96808.47
2023-04-20T03:13:44.097Z,96804.59
2023-04-20T03:18:46.181Z,96811.75
2023-04-20T03:23:49.462Z,96816.47
2023-04-20T03:28:51.481Z,96815.19
2023-04-20T03:33:53.688Z,96813.16
2023-04-20T03:38:56.957Z,96820.03
2023-04-20T03:43:58.880Z,96824.66
2023-04-20T03:49:00.878Z,96820.59
2023-04-20T03:54:05.935Z,96828.63
2023-04-20T03:59:07.904Z,96836.47
2023-04-20T04:04:10.026Z,96830.03
2023-04-20T04:09:13.553Z,96828.13
2023-04-20T04:14:15.524Z,96831.47
2023-04-20T04:19:17.792Z,96831.16
2023-04-20T04:24:21.636Z,96832.22
2023-04-20T04:29:25.688Z,96833.28
2023-04-20T04:34:29.768Z,96833.03
2023-04-20T04:39:33.056Z,96841.28
2023-04-20T04:44:35.008Z,96853.69
2023-04-20T04:49:37.081Z,96852.91
2023-04-20T04:54:40.956Z,96852.50
2023-04-20T04:59:42.982Z,96846.38
2023-04-20T05:04:46.721Z,96861.06
2023-04-20T05:09:50.405Z,96856.84
2023-04-20T05:14:52.720Z,96861.28
2023-04-20T05:19:54.736Z,96860.97
2023-04-20T05:24:58.037Z,96857.63
2023-04-20T05:30:09.470Z,96858.25
2023-04-20T05:35:19.202Z,96867.38
2023-04-20T05:40:22.622Z,96866.50
2023-04-20T05:45:24.664Z,96880.75
2023-04-20T05:50:27.385Z,96877.88
2023-04-20T05:55:30.844Z,96887.44
2023-04-20T06:00:32.862Z,96896.66
2023-04-20T06:05:35.113Z,96890.63
2023-04-20T06:10:38.708Z,96898.56
2023-04-20T06:15:40.743Z,96898.47
2023-04-20T06:20:43.317Z,96901.59
2023-04-20T06:25:46.805Z,96899.16
2023-04-20T06:30:48.750Z,96904.06
2023-04-20T06:35:51.589Z,96900.38
2023-04-20T06:40:57.400Z,96907.56
2023-04-20T06:45:59.398Z,96901.53
2023-04-20T06:51:01.832Z,96892.22
2023-04-20T06:56:05.970Z,96882.03
2023-04-20T07:01:07.954Z,96891.63
2023-04-20T07:06:11.336Z,96899.69
2023-04-20T07:11:14.867Z,96909.22
2023-04-20T07:16:17.008Z,96908.53
2023-04-20T07:21:19.051Z,96916.72
2023-04-20T07:26:23.364Z,96925.63
2023-04-20T07:31:25.427Z,96923.22
2023-04-20T07:36:27.912Z,96921.84
2023-04-20T07:41:31.219Z,96923.69
2023-04-20T07:46:33.167Z,96920.09
2023-04-20T07:51:35.277Z,96924.50
2023-04-20T07:56:38.595Z,96930.56
2023-04-20T08:01:40.699Z,96930.75
2023-04-20T08:06:42.695Z,96922.34
2023-04-20T08:11:46.260Z,96929.31
2023-04-20T08:16:48.253Z,96923.13
2023-04-20T08:21:51.352Z,96922.38
2023-04-20T08:26:54.638Z,96930.75
2023-04-20T08:31:56.702Z,96923.34
2023-04-20T08:36:58.753Z,96925.16
2023-04-20T08:42:02.267Z,96924.06
2023-04-20T08:47:04.502Z,96924.44
2023-04-20T08:52:10.695Z,96924.06
2023-04-20T08:57:14.058Z,96925.16
2023-04-20T09:02:16.226Z,96917.47
2023-04-20T09:07:19.824Z,96920.69
2023-04-20T09:12:24.680Z,96921.41
2023-04-20T09:17:34.140Z,96924.34
2023-04-20T09:22:37.448Z,96919.63
2023-04-20T09:27:40.800Z,96923.50
2023-04-20T09:32:42.979Z,96916.25
2023-04-20T09:37:48.848Z,96921.94
2023-04-20T09:42:53.944Z,96911.88
2023-04-20T09:47:57.236Z,96910.84
2023-04-20T09:53:00.378Z,96918.13
2023-04-20T09:58:04.860Z,96909.69
2023-04-20T10:03:09.101Z,96917.31
2023-04-20T10:08:11.475Z,96914.59
2023-04-20T10:13:15.351Z,96906.28
2023-04-20T10:18:23.447Z,96906.47
2023-04-20T10:23:25.784Z,96906.25
2023-04-20T10:28:40.076Z,96900.28
2023-04-20T10:33:53.090Z,96895.41
2023-04-20T10:38:55.817Z,96899.25
2023-04-20T10:44:08.728Z,96907.94
2023-04-20T10:49:10.695Z,96896.16
2023-04-20T10:54:12.678Z,96902.84
2023-04-20T10:59:17.337Z,96891.13
2023-04-20T11:04:29.609Z,96896.03
2023-04-20T11:09:33.443Z,96898.31
2023-04-20T11:14:40.097Z,96891.03
2023-04-20T11:19:42.065Z,96895.69
2023-04-20T11:24:44.221Z,96892.97
2023-04-20T11:29:56.178Z,96892.84
2023-04-20T11:35:05.968Z,96887.81
2023-04-20T11:40:10.303Z,96899.47
2023-04-20T11:45:13.587Z,96891.50
2023-04-20T11:50:15.697Z,96895.38
2023-04-20T11:55:17.935Z,96888.25
2023-04-20T12:00:22.103Z,96886.91
2023-04-20T12:05:24.127Z,96891.47
2023-04-20T12:10:26.149Z,96885.94
2023-04-20T12:15:29.446Z,96887.16
2023-04-20T12:20:31.434Z,96881.97
2023-04-20T12:25:33.559Z,96880.34
2023-04-20T12:30:36.858Z,96877.06
2023-04-20T12:35:38.836Z,96870.19
2023-04-20T12:40:40.843Z,96870.78
2023-04-20T12:45:44.221Z,96869.16
2023-04-20T12:50:46.210Z,96861.84
2023-04-20T12:55:49.551Z,96858.13
2023-04-20T13:00:56.479Z,96856.56
2023-04-20T13:05:58.975Z,96847.19
2023-04-20T13:11:00.939Z,96847.50
2023-04-20T13:16:04.717Z,96836.63
2023-04-20T13:21:07.037Z,96834.06
2023-04-20T13:26:09.192Z,96831.28
2023-04-20T13:31:12.480Z,96837.34
2023-04-20T13:36:14.526Z,96829.50
2023-04-20T13:41:16.499Z,96836.94
2023-04-20T13:46:20.853Z,96843.97
2023-04-20T13:51:22.956Z,96836.44
2023-04-20T13:56:25.007Z,96831.53
2023-04-20T14:01:28.344Z,96827.19
2023-04-20T14:06:31.160Z,96827.66
2023-04-20T14:11:33.271Z,96830.50
2023-04-20T14:16:44.130Z,96831.75
2023-04-20T14:21:47.284Z,96832.81
2023-04-20T14:26:50.825Z,96828.84
2023-04-20T14:31:54.206Z,96822.63
2023-04-20T14:36:56.607Z,96817.28
2023-04-20T14:41:58.562Z,96824.53
2023-04-20T14:47:02.952Z,96817.66
2023-04-20T14:52:05.154Z,96817.22
2023-04-20T14:57:07.277Z,96813.75
2023-04-20T15:02:10.799Z,96819.06
2023-04-20T15:07:12.930Z,96812.72
2023-04-20T15:12:14.915Z,96813.75
2023-04-20T15:17:18.871Z,96812.91
2023-04-20T15:22:20.836Z,96815.09
2023-04-20T15:27:22.798Z,96811.28
2023-04-20T15:32:26.386Z,96819.63
2023-04-20T15:37:28.681Z,96812.81
2023-04-20T15:42:30.688Z,96812.19
2023-04-20T15:47:34.090Z,96820.28
2023-04-20T15:52:36.200Z,96810.19
2023-04-20T15:57:38.158Z,96811.97
2023-04-20T16:02:41.591Z,96814.56
2023-04-20T16:07:43.723Z,96819.81
2023-04-20T16:12:46.087Z,96820.81
2023-04-20T16:17:49.413Z,96821.06
2023-04-20T16:22:51.562Z,96814.09
2023-04-20T16:27:53.658Z,96819.44
2023-04-20T16:32:59.610Z,96811.38
2023-04-20T16:38:01.803Z,96822.00
2023-04-20T16:43:03.896Z,96814.13
2023-04-20T16:48:08.223Z,96824.31
2023-04-20T16:53:10.398Z,96825.34
2023-04-20T16:58:12.677Z,96826.84
2023-04-20T17:03:16.174Z,96821.38
2023-04-20T17:08:18.916Z,96828.91
2023-04-20T17:13:20.712Z,96830.50
2023-04-20T17:18:24.140Z,96834.34
2023-04-20T17:23:26.441Z,96835.66
2023-04-20T17:28:28.597Z,96830.69
2023-04-20T17:33:32.113Z,96838.22
2023-04-20T17:38:36.580Z,96840.13
2023-04-20T17:43:40.382Z,96838.31
2023-04-20T17:48:43.694Z,96843.91
2023-04-20T17:53:45.754Z,96852.56
2023-04-20T17:58:48.973Z,96854.00
2023-04-20T18:03:52.576Z,96852.97
2023-04-20T18:08:56.258Z,96848.13
2023-04-20T18:13:58.301Z,96862.88
2023-04-20T18:19:01.618Z,96863.19
2023-04-20T18:24:04.616Z,96868.94
2023-04-20T18:29:06.543Z,96868.94
2023-04-20T18:34:11.566Z,96864.69
2023-04-20T18:39:14.719Z,96865.59
2023-04-20T18:44:17.043Z,96869.97
2023-04-20T18:49:20.488Z,96870.16
2023-04-20T18:54:22.478Z,96875.78
2023-04-20T18:59:25.062Z,96879.03
2023-04-20T19:04:29.252Z,96880.09
2023-04-20T19:09:31.280Z,96877.53
2023-04-20T19:14:33.264Z,96882.31
2023-04-20T19:19:36.670Z,96881.28
2023-04-20T19:24:38.652Z,96879.50
2023-04-20T19:29:40.796Z,96880.41
2023-04-20T19:34:44.247Z,96874.94
2023-04-20T19:39:46.226Z,96879.69
2023-04-20T19:44:48.259Z,96869.44
2023-04-20T19:49:51.597Z,96875.09
2023-04-20T19:54:53.615Z,96872.81
2023-04-20T19:59:55.721Z,96878.47
2023-04-20T20:04:59.093Z,96875.88
2023-04-20T20:10:01.398Z,96874.34
2023-04-20T20:15:04.592Z,96866.38
2023-04-20T20:20:09.378Z,96874.94
2023-04-20T20:25:11.334Z,96867.44
2023-04-20T20:30:14.537Z,96866.44
2023-04-20T20:35:18.015Z,96867.00
2023-04-20T20:40:20.164Z,96859.03
2023-04-20T20:45:22.345Z,96864.78
2023-04-20T20:50:27.714Z,96869.94
2023-04-20T20:55:29.774Z,96867.75
2023-04-20T21:00:33.374Z,96868.28
2023-04-20T21:05:36.774Z,96872.19
2023-04-20T21:10:38.624Z,96876.66
2023-04-20T21:15:40.917Z,96879.09
2023-04-20T21:20:44.223Z,96883.69
2023-04-20T21:25:46.260Z,96870.09
2023-04-20T21:30:48.268Z,96877.88
2023-04-20T21:35:51.622Z,96877.91
2023-04-20T21:40:53.489Z,96871.47
2023-04-20T21:45:55.585Z,96879.28
2023-04-20T21:50:58.953Z,96874.16
2023-04-20T21:56:00.926Z,96890.31
2023-04-20T22:01:03.418Z,96884.28
2023-04-20T22:06:07.135Z,96886.56
2023-04-20T22:11:09.341Z,96881.88
2023-04-20T22:16:11.378Z,96888.25
2023-04-20T22:21:14.764Z,96891.88
2023-04-20T22:26:16.807Z,96888.50
2023-04-20T22:31:18.841Z,96878.97
2023-04-20T22:36:22.188Z,96885.75
2023-04-20T22:41:24.170Z,96894.53
2023-04-20T22:46:26.127Z,96892.44
2023-04-20T22:51:29.509Z,96894.41
2023-04-20T22:56:31.977Z,96894.41
2023-04-20T23:01:33.921Z,96894.19
2023-04-20T23:06:37.812Z,96890.81
2023-04-20T23:11:39.803Z,96886.53
2023-04-20T23:16:42.020Z,96888.50
2023-04-20T23:21:45.524Z,96882.34
2023-04-20T23:26:47.506Z,96884.66
2023-04-20T23:31:49.529Z,96880.13
2023-04-20T23:36:53.899Z,96876.50
2023-04-20T23:41:56.355Z,96874.72
2023-04-20T23:46:58.304Z,96868.81
2023-04-20T23:52:01.587Z,96870.81
2023-04-20T23:57:03.583Z,96867.59
